Flight Track Log - Related Links

Times and Time Zones

All times are in EDT time to prevent confusion due to time zone crossing. See the TRS1858 flight status page for this flight to view local times or setup timezone preferences in your user account.

Time Position Orientation Groundspeed Altitude Reporting Facility
EDT Latitude Longitude Course Direction KTS MPH feet Rate Location/Type
Thu 06:51:55 AM 39.1333 -76.6333 142° Southeast 185 213 1,800  Level Potomac TRACON
Thu 06:52:55 AM 39.0833 -76.5833 150° Southeast 251 289 3,000 1,600 Climbing Potomac TRACON
Thu 06:53:55 AM 39.0167 -76.5333 156° South 292 336 5,000 2,172 Climbing Potomac TRACON
Thu 06:55:49 AM 38.8728 -76.4528 203° Southwest 300 345 9,300 1,989 Climbing Washington Center
Thu 06:56:50 AM 38.7953 -76.4944 218° Southwest 292 336 10,800 1,438 Climbing Washington Center
Thu 06:57:50 AM 38.7175 -76.5733 216° Southwest 314 361 12,200 1,636 Climbing Washington Center
Thu 06:58:51 AM 38.6336 -76.6522 212° Southwest 351 404 14,100 1,916 Climbing Washington Center
Thu 06:59:49 AM 38.5475 -76.7197 177° South 369 425 16,000 1,850 Climbing Washington Center
Thu 07:00:51 AM 38.4350 -76.7128 174° South 369 425 17,800 1,750 Climbing Washington Center
Thu 07:01:49 AM 38.3203 -76.6981 171° South 391 450 19,500 2,168 Climbing Washington Center
Thu 07:02:50 AM 38.2142 -76.6778 174° South 409 471 22,100 1,770 Climbing Washington Center
Thu 07:03:51 AM 38.0997 -76.6631 175° South 414 476 23,100 1,160 Climbing Washington Center
Thu 07:04:49 AM 37.9767 -76.6481 175° South 426 490 24,400 1,400 Climbing Washington Center
Thu 07:05:51 AM 37.8517 -76.6333 174° South 440 506 25,900 1,328 Climbing Washington Center
Thu 07:06:51 AM 37.7267 -76.6158 174° South 451 519 27,100 1,322 Climbing Washington Center
Thu 07:07:49 AM 37.5997 -76.5983 174° South 456 525 28,500 1,462 Climbing Washington Center
Thu 07:08:50 AM 37.4747 -76.5811 177° South 462 532 30,000 1,250 Climbing Washington Center
Thu 07:09:49 AM 37.3494 -76.5742 195° South 462 532 31,000 1,059 Climbing Washington Center
Thu 07:10:49 AM 37.2261 -76.6169 197° South 457 526 32,100 1,091 Climbing Washington Center
Thu 07:11:50 AM 37.1067 -76.6622 197° South 457 526 33,200 942 Climbing Washington Center
Thu 07:12:50 AM 36.9894 -76.7075 197° South 452 520 34,000 397 Climbing Washington Center
Thu 07:13:51 AM 36.8703 -76.7525 197° South 447 514 34,000  Level Washington Center
Thu 07:14:49 AM 36.7550 -76.7975 197° South 447 514 34,000  Level Washington Center
Thu 07:15:50 AM 36.6356 -76.8422 197° South 447 514 34,000  Level Washington Center
Thu 07:16:49 AM 36.5164 -76.8867 198° South 447 514 34,000  Level Washington Center
Thu 07:17:51 AM 36.4011 -76.9339 196° South 441 507 34,000  Level Washington Center
Thu 07:18:49 AM 36.2817 -76.9756 197° South 441 507 34,000  Level Washington Center
Thu 07:19:50 AM 36.1642 -77.0200 197° South 446 513 34,000  Level Washington Center
Thu 07:20:50 AM 36.0469 -77.0642 196° South 446 513 34,000  Level Washington Center
Thu 07:21:51 AM 35.9147 -77.1103 197° South 446 513 34,000  Level Washington Center
Thu 07:22:48 AM 35.8017 -77.1517 197° South 432 497 34,000  Level Washington Center
Thu 07:23:49 AM 35.6822 -77.1953 196° South 437 503 34,000  Level Washington Center
Thu 07:24:50 AM 35.5628 -77.2364 196° South 447 514 34,000  Level Washington Center
Thu 07:25:51 AM 35.4411 -77.2797 197° South 447 514 34,000  Level Washington Center
Thu 07:26:49 AM 35.3339 -77.3208 197° South 447 514 34,000  Level Washington Center
Thu 07:27:49 AM 35.2167 -77.3642 196° South 453 521 34,000  Level Washington Center
Thu 07:28:51 AM 35.0928 -77.4069 196° South 458 527 34,000  Level Washington Center
Thu 07:29:51 AM 34.9733 -77.4500 196° South 458 527 34,000  Level Washington Center
Thu 07:30:51 AM 34.8514 -77.4928 199° South 458 527 34,000  Level Washington Center
Thu 07:31:49 AM 34.7233 -77.5453 195° South 458 527 34,000  Level Washington Center
Thu 07:32:49 AM 34.5997 -77.5853 196° South 458 527 34,000  Level Washington Center
Thu 07:33:49 AM 34.4925 -77.6231 196° South 458 527 34,000  Level Washington Center
Thu 07:34:51 AM 34.3731 -77.6653 195° South 458 527 34,000  Level Washington Center
Thu 07:36:45 AM 34.1339 -77.7447 196° South 475 547 34,000  Level Jacksonville Center
Thu 07:37:45 AM 34.0128 -77.7869 197° South 455 524 34,000  Level Jacksonville Center
Thu 07:38:45 AM 33.8914 -77.8317 195° South 455 524 34,000  Level Jacksonville Center
Thu 07:39:45 AM 33.7719 -77.8711 197° South 450 518 34,000  Level Jacksonville Center
Thu 07:40:45 AM 33.6361 -77.9211 196° South 455 524 34,000  Level Jacksonville Center
Thu 07:41:45 AM 33.5169 -77.9628 197° South 455 524 34,000  Level Jacksonville Center
Thu 07:42:45 AM 33.3933 -78.0069 196° South 455 524 34,000  Level Jacksonville Center
Thu 07:43:45 AM 33.2719 -78.0483 197° South 455 524 34,000  Level Jacksonville Center
Thu 07:44:45 AM 33.1483 -78.0922 196° South 455 524 34,000  Level Jacksonville Center
Thu 07:45:45 AM 33.0267 -78.1333 196° South 455 524 34,000  Level Jacksonville Center
Thu 07:46:45 AM 32.9031 -78.1744 196° South 455 524 34,000  Level Jacksonville Center
Thu 07:47:45 AM 32.7775 -78.2181 197° South 455 524 34,000  Level Jacksonville Center
Thu 07:48:45 AM 32.6539 -78.2617 196° South 455 524 34,000  Level Jacksonville Center
Thu 07:49:45 AM 32.5322 -78.3022 195° South 460 529 34,000  Level Jacksonville Center
Thu 07:50:45 AM 32.4064 -78.3431 195° South 460 529 34,000  Level Jacksonville Center
Thu 07:51:45 AM 32.2969 -78.3781 196° South 465 535 34,000  Level Jacksonville Center
Thu 07:52:45 AM 32.1711 -78.4211 196° South 465 535 34,000  Level Jacksonville Center
Thu 07:53:45 AM 32.0453 -78.4639 195° South 470 541 34,000  Level Jacksonville Center
Thu 07:54:45 AM 31.9214 -78.5042 196° South 470 541 34,000  Level Jacksonville Center
Thu 07:55:45 AM 31.7956 -78.5467 195° South 470 541 34,000  Level Jacksonville Center
Thu 07:56:45 AM 31.6675 -78.5869 195° South 475 547 34,000  Level Jacksonville Center
Thu 07:57:45 AM 31.5436 -78.6267 196° South 469 540 34,000  Level Jacksonville Center
Thu 07:58:45 AM 31.4197 -78.6689 195° South 469 540 34,000  Level Jacksonville Center
Thu 07:59:46 AM 31.2917 -78.7089 197° South 469 540 34,000  Level Jacksonville Center
Thu 08:00:46 AM 31.1658 -78.7533 195° South 475 547 34,000  Level Jacksonville Center
Thu 08:01:46 AM 31.0150 -78.8011 195° South 492 566 34,000  Level Jacksonville Center
Thu 08:02:46 AM 30.8847 -78.8406 195° South 492 566 34,000  Level Jacksonville Center
Thu 08:03:45 AM 30.7608 -78.8797 197° South 474 545 34,000  Level Jacksonville Center
Thu 08:04:45 AM 30.6328 -78.9239 195° South 492 566 34,000  Level Jacksonville Center
Thu 08:05:49 AM 30.5108 -78.9619 195° South 476 548 34,000  Level Miami Center
Thu 08:06:49 AM 30.3831 -79.0003 193° South 476 548 34,000  Level Miami Center
Thu 08:07:49 AM 30.2553 -79.0336 193° South 484 557 34,000  Level Miami Center
Thu 08:08:49 AM 30.1256 -79.0669 196° South 484 557 34,000  Level Miami Center
Thu 08:09:49 AM 30.0000 -79.1075 191° South 490 564 34,000  Level Miami Center
Thu 08:10:49 AM 29.8639 -79.1381 193° South 481 554 34,000  Level Miami Center
Thu 08:11:49 AM 29.7342 -79.1714 191° South 481 554 34,000  Level Miami Center
Thu 08:12:49 AM 29.5961 -79.2017 194° South 494 568 34,000  Level Miami Center
Thu 08:13:49 AM 29.4639 -79.2394 193° South 489 563 34,000  Level Miami Center
Thu 08:14:49 AM 29.3194 -79.2767 190° South 489 563 34,000  Level Miami Center
Thu 08:15:49 AM 29.1833 -79.3047 195° South 495 570 34,000  Level Miami Center
Thu 08:16:49 AM 29.0575 -79.3422 192° South 490 564 34,000  Level Miami Center
Thu 08:17:49 AM 28.9256 -79.3747 192° South 485 558 34,000  Level Miami Center
Thu 08:18:49 AM 28.7936 -79.4072 192° South 491 565 34,000  Level Miami Center
Thu 08:19:49 AM 28.6614 -79.4397 192° South 486 559 34,000  Level Miami Center
Thu 08:20:49 AM 28.5314 -79.4722 192° South 486 559 34,000  Level Miami Center
Thu 08:21:49 AM 28.4014 -79.5047 193° South 486 559 34,000  Level Miami Center
Thu 08:22:49 AM 28.2714 -79.5392 192° South 481 554 34,000  Level Miami Center
Thu 08:23:49 AM 28.1414 -79.5717 192° South 481 554 34,000  Level Miami Center
Thu 08:24:49 AM 28.0114 -79.6036 192° South 481 554 34,000 -250 Level Miami Center
Thu 08:25:49 AM 27.8792 -79.6358 192° South 481 554 33,500 -800 Descending Miami Center
Thu 08:26:49 AM 27.7492 -79.6678 193° South 481 554 32,400 -1,900 Descending Miami Center
Thu 08:27:49 AM 27.6294 -79.7000 191° South 486 559 29,700 -2,500 Descending Miami Center
Thu 08:28:49 AM 27.4953 -79.7294 192° South 493 567 27,400 -2,400 Descending Miami Center
Thu 08:29:49 AM 27.3611 -79.7611 178° South 461 531 24,900 -1,900 Descending Miami Center
Thu 08:30:49 AM 27.2422 -79.7558 165° South 427 491 23,600 -1,850 Descending Miami Center
Thu 08:31:49 AM 27.1383 -79.7253 164° South 427 491 21,200 -2,350 Descending Miami Center
Thu 08:32:49 AM 27.0344 -79.6925 166° South 404 465 18,900 -2,450 Descending Miami Center
Thu 08:33:49 AM 26.9203 -79.6594 178° South 384 442 16,300 -1,950 Descending Miami Center
Thu 08:34:49 AM 26.8181 -79.6547 204° Southwest 370 426 15,000 -1,500 Descending Miami Center
Thu 08:35:49 AM 26.7233 -79.7011 201° Southwest 362 417 13,300 -1,879 Descending Miami Center
Thu 08:36:28 AM 26.6622 -79.7275 201° Southwest 359 413 11,900 -2,122 Descending Miami Center
Thu 08:37:11 AM 26.6011 -79.7539 208° Southwest 351 404 10,400 -2,000 Descending Miami Center
Thu 08:37:49 AM 26.5483 -79.7853 201° Southwest 357 411 9,200 -1,224 Descending Miami Center
Thu 08:38:49 AM 26.4703 -79.8181 204° Southwest 313 360 8,400 -600 Descending Miami Center
Thu 08:39:49 AM 26.3986 -79.8533 215° Southwest 294 338 8,000 -200 Descending Miami Center
Thu 08:40:49 AM 26.3392 -79.9006 221° Southwest 289 333 8,000 -300 Level Miami Center
Thu 08:41:49 AM 26.2708 -79.9661 221° Southwest 295 339 7,400 -645 Descending Miami Center
Thu 08:42:22 AM 26.2367 -79.9997 224° Southwest 290 334 7,000 -255 Descending Miami Center
Thu 08:43:23 AM 26.1769 -80.0631 252° West 288 331 7,000 -54 Level Miami Center
Thu 08:44:13 AM 26.1586 -80.1250 260° West 260 299 6,900 -628 Descending Miami Center
Thu 08:44:49 AM 26.1514 -80.1711 269° West 264 304 6,100 -1,375 Descending Miami Center
Thu 08:45:49 AM 26.1497 -80.2475 261° West 246 283 4,700 -1,098 Descending Miami Center
Thu 08:47:22 AM 26.1347 -80.3511 177° South 226 260 3,300 -1,052 Descending Miami Center
Thu 08:48:23 AM 26.0764 -80.3472 93° East 205 236 2,000 -609 Descending Miami Center
Thu 08:49:30 AM 26.0736 -80.2892 89° East 162 186 2,000 -344 Level Miami Center
Thu 08:50:25 AM 26.0744 -80.2453 88° East 160 184 1,300 -730 Descending Miami Center
Thu 08:51:25 AM 26.0756 -80.2036 88° East 127 146 600 -700 Descending Miami Center

Login

Don't have an account? Register now (free) for customized features, flight alerts, and more!